createdAt,value
2023-04-13T00:00:11.139Z,69.20
2023-04-13T00:02:40.104Z,68.70
2023-04-13T00:05:08.108Z,66.60
2023-04-13T00:07:34.730Z,63.80
2023-04-13T00:10:04.100Z,63.70
2023-04-13T00:12:30.723Z,63.20
2023-04-13T00:14:57.636Z,64.40
2023-04-13T00:17:25.845Z,62.90
2023-04-13T00:19:57.627Z,61.30
2023-04-13T00:22:24.681Z,61.20
2023-04-13T00:24:54.454Z,60.80
2023-04-13T00:27:21.842Z,63.00
2023-04-13T00:29:48.393Z,62.90
2023-04-13T00:32:14.989Z,64.30
2023-04-13T00:34:41.711Z,60.30
2023-04-13T00:37:08.276Z,61.00
2023-04-13T00:39:35.011Z,61.90
2023-04-13T00:42:02.135Z,63.20
2023-04-13T00:44:28.687Z,65.40
2023-04-13T00:46:55.265Z,65.00
2023-04-13T00:49:22.890Z,64.60
2023-04-13T00:51:49.795Z,64.70
2023-04-13T00:54:19.382Z,64.00
2023-04-13T00:56:46.085Z,66.10
2023-04-13T00:59:12.799Z,65.30
2023-04-13T01:01:50.872Z,68.70
2023-04-13T01:04:20.455Z,67.60
2023-04-13T01:06:51.353Z,66.10
2023-04-13T01:09:20.700Z,67.10
2023-04-13T01:11:58.517Z,68.10
2023-04-13T01:14:37.678Z,67.90
2023-04-13T01:17:07.556Z,68.80
2023-04-13T01:19:51.711Z,69.00
2023-04-13T01:22:23.851Z,68.80
2023-04-13T01:25:01.984Z,69.90
2023-04-13T01:27:50.958Z,70.20
2023-04-13T01:30:19.451Z,68.70
2023-04-13T01:32:46.293Z,68.80
2023-04-13T01:35:13.306Z,68.70
2023-04-13T01:37:45.180Z,69.20
2023-04-13T01:40:13.451Z,69.50
2023-04-13T01:42:40.564Z,70.80
2023-04-13T01:45:10.488Z,70.70
2023-04-13T01:47:38.839Z,68.50
2023-04-13T01:50:29.703Z,68.90
2023-04-13T01:53:07.926Z,71.50
2023-04-13T01:55:39.882Z,68.60
2023-04-13T01:58:06.968Z,69.10
2023-04-13T02:00:36.549Z,70.80
2023-04-13T02:03:05.117Z,70.40
2023-04-13T02:05:32.688Z,69.60
2023-04-13T02:07:59.441Z,71.50
2023-04-13T02:10:26.550Z,71.60
2023-04-13T02:12:54.742Z,73.60
2023-04-13T02:15:21.668Z,73.40
2023-04-13T02:17:48.295Z,74.20
2023-04-13T02:20:15.025Z,74.20
2023-04-13T02:22:41.626Z,74.00
2023-04-13T02:25:08.642Z,74.10
2023-04-13T02:27:35.891Z,75.40
2023-04-13T02:30:02.729Z,77.80
2023-04-13T02:32:31.538Z,77.20
2023-04-13T02:34:58.663Z,76.90
2023-04-13T02:37:25.483Z,76.90
2023-04-13T02:39:52.110Z,76.90
2023-04-13T02:42:18.654Z,76.80
2023-04-13T02:44:45.494Z,76.90
2023-04-13T02:47:12.071Z,76.50
2023-04-13T02:49:38.878Z,77.70
2023-04-13T02:52:05.882Z,77.60
2023-04-13T02:54:33.202Z,79.60
2023-04-13T02:57:01.884Z,78.70
2023-04-13T02:59:28.441Z,78.10
2023-04-13T03:01:58.851Z,79.30
2023-04-13T03:04:25.714Z,79.80
2023-04-13T03:06:54.340Z,80.70
2023-04-13T03:09:21.033Z,80.70
2023-04-13T03:11:47.623Z,81.00
2023-04-13T03:14:20.985Z,80.30
2023-04-13T03:16:48.364Z,80.20
2023-04-13T03:19:16.677Z,79.50
2023-04-13T03:21:44.914Z,79.20
2023-04-13T03:24:12.473Z,79.70
2023-04-13T03:26:39.038Z,81.20
2023-04-13T03:29:05.775Z,81.00
2023-04-13T03:31:32.529Z,80.90
2023-04-13T03:33:59.295Z,80.20
2023-04-13T03:36:27.882Z,81.50
2023-04-13T03:38:54.893Z,81.60
2023-04-13T03:41:22.416Z,82.10
2023-04-13T03:43:49.307Z,80.40
2023-04-13T03:46:16.402Z,80.10
2023-04-13T03:48:43.338Z,80.10
2023-04-13T03:51:10.034Z,79.20
2023-04-13T03:53:36.731Z,79.80
2023-04-13T03:56:03.678Z,78.80
2023-04-13T03:58:30.693Z,77.90
2023-04-13T04:00:57.467Z,76.40
2023-04-13T04:03:25.606Z,75.40
2023-04-13T04:05:52.954Z,76.50
2023-04-13T04:08:19.560Z,75.30
2023-04-13T04:10:46.379Z,75.00
2023-04-13T04:13:12.967Z,72.20
2023-04-13T04:15:39.560Z,72.50
2023-04-13T04:18:06.161Z,72.00
2023-04-13T04:20:35.295Z,73.20
2023-04-13T04:23:04.889Z,73.30
2023-04-13T04:25:33.342Z,73.40
2023-04-13T04:28:02.510Z,72.40
2023-04-13T04:30:29.945Z,72.40
2023-04-13T04:32:56.973Z,72.00
2023-04-13T04:35:32.997Z,71.40
2023-04-13T04:38:03.404Z,71.10
2023-04-13T04:40:30.711Z,71.70
2023-04-13T04:42:57.791Z,71.50
2023-04-13T04:45:27.286Z,72.00
2023-04-13T04:47:57.354Z,72.20
2023-04-13T04:50:27.293Z,71.80
2023-04-13T04:52:53.950Z,72.20
2023-04-13T04:55:20.661Z,69.80
2023-04-13T04:57:47.292Z,70.70
2023-04-13T05:00:17.102Z,68.10
2023-04-13T05:02:44.398Z,68.00
2023-04-13T05:05:11.882Z,67.50
2023-04-13T05:07:38.549Z,66.10
2023-04-13T05:10:07.472Z,65.00
2023-04-13T05:12:36.051Z,64.80
2023-04-13T05:15:04.454Z,64.60
2023-04-13T05:17:31.126Z,63.20
2023-04-13T05:19:57.726Z,59.20
2023-04-13T05:22:24.362Z,59.50
2023-04-13T05:24:50.927Z,57.00
2023-04-13T05:27:17.568Z,56.60
2023-04-13T05:29:46.238Z,53.90
2023-04-13T05:32:14.098Z,53.50
2023-04-13T05:34:40.754Z,51.30
2023-04-13T05:37:07.407Z,48.90
2023-04-13T05:39:34.019Z,50.50
2023-04-13T05:42:01.334Z,48.70
2023-04-13T05:44:27.937Z,45.90
2023-04-13T05:46:54.525Z,44.30
2023-04-13T05:49:21.477Z,39.30
2023-04-13T05:51:48.300Z,37.10
2023-04-13T05:54:14.907Z,38.10
2023-04-13T05:56:41.476Z,38.20
2023-04-13T05:59:08.714Z,38.30
2023-04-13T06:01:36.444Z,37.60
2023-04-13T06:04:03.867Z,36.60
2023-04-13T06:06:30.841Z,35.80
2023-04-13T06:08:57.781Z,33.00
2023-04-13T06:11:25.832Z,29.00
2023-04-13T06:13:52.408Z,28.10
2023-04-13T06:16:19.033Z,26.90
2023-04-13T06:18:45.970Z,28.10
2023-04-13T06:21:12.548Z,28.60
2023-04-13T06:23:39.175Z,27.70
2023-04-13T06:26:06.870Z,26.20
2023-04-13T06:28:33.709Z,23.80
2023-04-13T06:31:00.451Z,24.00
2023-04-13T06:33:27.851Z,22.80
2023-04-13T06:35:54.433Z,20.80
2023-04-13T06:38:21.017Z,17.00
2023-04-13T06:40:47.600Z,13.30
2023-04-13T06:43:26.482Z,13.10
2023-04-13T06:45:59.873Z,6.90
2023-04-13T06:48:27.067Z,6.10
2023-04-13T06:50:57.171Z,1.30
2023-04-13T06:53:23.774Z,1.40
2023-04-13T06:55:50.920Z,1.00
2023-04-13T06:58:17.603Z,1.00
2023-04-13T07:00:44.223Z,1.00
2023-04-13T07:03:10.958Z,1.00
2023-04-13T07:05:38.969Z,1.00
2023-04-13T07:08:06.396Z,1.00
2023-04-13T07:10:33.055Z,1.00
2023-04-13T07:12:59.644Z,1.00
2023-04-13T07:15:26.189Z,1.00
2023-04-13T07:17:52.847Z,1.00
2023-04-13T07:20:19.395Z,1.00
2023-04-13T07:22:45.952Z,1.00
2023-04-13T07:25:12.514Z,1.00
2023-04-13T07:27:39.240Z,1.00
2023-04-13T07:30:07.242Z,1.00
2023-04-13T07:32:33.784Z,1.00
2023-04-13T07:35:01.932Z,1.00
2023-04-13T07:37:29.678Z,1.00
2023-04-13T07:39:56.296Z,1.00
2023-04-13T07:42:22.879Z,1.00
2023-04-13T07:44:49.515Z,1.00
2023-04-13T07:47:16.730Z,1.00
2023-04-13T07:49:43.440Z,1.00
2023-04-13T07:52:10.153Z,1.00
2023-04-13T07:54:36.895Z,1.00
2023-04-13T07:57:03.956Z,1.00
2023-04-13T07:59:30.847Z,1.00
2023-04-13T08:01:58.045Z,1.00
2023-04-13T08:04:24.774Z,1.00
2023-04-13T08:06:52.068Z,1.00
2023-04-13T08:09:18.597Z,1.00
2023-04-13T08:11:45.255Z,1.00
2023-04-13T08:14:12.006Z,1.00
2023-04-13T08:16:38.639Z,1.00
2023-04-13T08:19:05.279Z,1.00
2023-04-13T08:21:32.797Z,1.00
2023-04-13T08:23:59.379Z,1.00
2023-04-13T08:26:26.336Z,1.00
2023-04-13T08:28:53.876Z,1.00
2023-04-13T08:31:20.590Z,1.00
2023-04-13T08:33:47.316Z,1.00
2023-04-13T08:36:14.029Z,1.00
2023-04-13T08:38:41.038Z,1.00
2023-04-13T08:41:09.398Z,1.00
2023-04-13T08:43:36.331Z,1.00
2023-04-13T08:46:04.305Z,1.00
2023-04-13T08:48:42.226Z,1.00
2023-04-13T08:51:18.220Z,1.00
2023-04-13T08:53:44.746Z,1.00
2023-04-13T08:56:14.673Z,1.00
2023-04-13T08:58:42.934Z,1.00
2023-04-13T09:01:13.546Z,1.00
2023-04-13T09:03:46.015Z,1.00
2023-04-13T09:06:13.165Z,1.00
2023-04-13T09:11:07.890Z,1.00
2023-04-13T09:13:34.587Z,1.00
2023-04-13T09:16:02.685Z,1.00
2023-04-13T09:18:29.365Z,1.00
2023-04-13T09:20:56.821Z,1.00
2023-04-13T09:23:23.396Z,1.00
2023-04-13T09:25:50.378Z,1.00
2023-04-13T09:28:20.092Z,1.00
2023-04-13T09:30:47.240Z,1.00
2023-04-13T09:33:15.688Z,1.00
2023-04-13T09:35:42.640Z,1.00
2023-04-13T09:38:11.705Z,1.00
2023-04-13T09:40:47.741Z,1.00
2023-04-13T09:43:14.324Z,1.00
2023-04-13T09:45:44.351Z,1.00
2023-04-13T09:48:21.392Z,1.00
2023-04-13T09:51:05.476Z,1.00
2023-04-13T09:53:50.129Z,1.00
2023-04-13T09:56:17.225Z,1.00
2023-04-13T09:58:44.923Z,1.00
2023-04-13T10:01:12.050Z,1.00
2023-04-13T10:03:38.777Z,1.00
2023-04-13T10:06:06.533Z,1.00
2023-04-13T10:08:38.147Z,1.00
2023-04-13T10:11:08.465Z,1.00
2023-04-13T10:13:37.143Z,1.00
2023-04-13T10:16:12.944Z,1.00
2023-04-13T10:18:57.983Z,1.00
2023-04-13T10:21:26.482Z,1.00
2023-04-13T10:23:53.048Z,1.00
2023-04-13T10:26:30.412Z,1.00
2023-04-13T10:28:57.857Z,1.00
2023-04-13T10:31:36.710Z,1.00
2023-04-13T10:34:04.309Z,1.00
2023-04-13T10:36:41.806Z,1.00
2023-04-13T10:39:11.571Z,1.00
2023-04-13T10:41:38.614Z,1.00
2023-04-13T10:44:06.425Z,1.00
2023-04-13T10:46:36.496Z,1.00
2023-04-13T10:49:03.852Z,1.00
2023-04-13T10:51:40.915Z,1.00
2023-04-13T10:54:08.373Z,1.00
2023-04-13T10:56:35.490Z,1.00
2023-04-13T10:59:02.424Z,1.00
2023-04-13T11:01:31.615Z,1.00
2023-04-13T11:04:07.726Z,1.00
2023-04-13T11:06:39.377Z,1.00
2023-04-13T11:09:07.346Z,1.00
2023-04-13T11:11:35.909Z,1.00
2023-04-13T11:14:03.652Z,1.00
2023-04-13T11:16:30.541Z,1.00
2023-04-13T11:19:01.525Z,1.00
2023-04-13T11:21:31.785Z,1.00
2023-04-13T11:24:02.393Z,1.00
2023-04-13T11:26:34.124Z,1.00
2023-04-13T11:29:01.970Z,1.00
2023-04-13T11:31:36.261Z,1.00
2023-04-13T11:34:06.031Z,1.00
2023-04-13T11:36:33.519Z,1.00
2023-04-13T11:39:01.976Z,1.00
2023-04-13T11:41:30.087Z,1.00
2023-04-13T11:43:57.156Z,1.00
2023-04-13T11:46:25.669Z,1.00
2023-04-13T11:48:52.593Z,1.00
2023-04-13T11:51:20.354Z,1.00
2023-04-13T11:53:47.181Z,1.00
2023-04-13T11:56:14.559Z,1.00
2023-04-13T11:58:42.647Z,1.00
2023-04-13T12:01:14.293Z,1.00
2023-04-13T12:06:17.594Z,1.00
2023-04-13T12:08:46.681Z,1.00
2023-04-13T12:11:40.560Z,1.00
2023-04-13T12:14:09.975Z,1.00
2023-04-13T12:19:12.806Z,1.00
2023-04-13T12:21:50.062Z,1.00
2023-04-13T12:24:16.851Z,1.00
2023-04-13T12:27:17.044Z,1.00
2023-04-13T12:29:30.404Z,1.00
2023-04-13T12:32:01.766Z,1.00
2023-04-13T12:34:28.714Z,1.00
2023-04-13T12:36:55.376Z,1.00
2023-04-13T12:39:21.952Z,1.00
2023-04-13T12:41:48.542Z,1.00
2023-04-13T12:44:15.218Z,1.00
2023-04-13T12:46:43.058Z,1.00
2023-04-13T12:49:09.702Z,1.00
2023-04-13T12:51:36.294Z,1.00
2023-04-13T12:54:03.000Z,1.00
2023-04-13T12:56:30.806Z,1.00
2023-04-13T12:59:00.046Z,1.00
2023-04-13T13:01:26.750Z,1.00
2023-04-13T13:03:53.423Z,1.00
2023-04-13T13:06:20.052Z,1.00
2023-04-13T13:08:46.589Z,1.00
2023-04-13T13:11:13.935Z,1.00
2023-04-13T13:13:40.784Z,1.00
2023-04-13T13:16:07.484Z,1.00
2023-04-13T13:18:49.135Z,1.00
2023-04-13T13:21:21.710Z,1.00
2023-04-13T13:23:48.292Z,1.00
2023-04-13T13:28:44.804Z,1.00
2023-04-13T13:31:12.743Z,1.00
2023-04-13T13:33:39.517Z,1.00
2023-04-13T13:36:08.293Z,1.00
2023-04-13T13:38:36.521Z,1.00
2023-04-13T13:41:03.565Z,1.00
2023-04-13T13:43:30.336Z,1.00
2023-04-13T13:45:57.108Z,1.00
2023-04-13T13:48:24.088Z,1.00
2023-04-13T13:50:50.827Z,1.00
2023-04-13T13:53:17.383Z,1.00
2023-04-13T13:55:44.028Z,1.00
2023-04-13T13:58:10.611Z,1.00
2023-04-13T14:00:37.981Z,1.00
2023-04-13T14:03:04.665Z,1.00
2023-04-13T14:05:32.192Z,1.00
2023-04-13T14:07:58.796Z,1.00
2023-04-13T14:10:25.703Z,1.00
2023-04-13T14:12:52.997Z,1.00
2023-04-13T14:15:19.582Z,1.00
2023-04-13T14:17:55.433Z,1.00
2023-04-13T14:20:33.738Z,1.00
2023-04-13T14:23:00.551Z,1.00
2023-04-13T14:25:27.081Z,1.00
2023-04-13T14:27:53.641Z,1.00
2023-04-13T14:30:21.959Z,1.00
2023-04-13T14:32:49.265Z,1.00
2023-04-13T14:35:16.220Z,1.00
2023-04-13T14:37:42.806Z,1.00
2023-04-13T14:40:14.417Z,1.00
2023-04-13T14:42:41.116Z,1.00
2023-04-13T14:45:10.449Z,1.00
2023-04-13T14:47:37.434Z,1.00
2023-04-13T14:50:04.545Z,1.00
2023-04-13T14:52:31.572Z,1.00
2023-04-13T14:54:58.144Z,1.00
2023-04-13T14:57:24.900Z,1.00
2023-04-13T14:59:53.055Z,1.00
2023-04-13T15:02:21.026Z,1.00
2023-04-13T15:04:48.729Z,1.00
2023-04-13T15:07:15.720Z,1.00
2023-04-13T15:09:42.335Z,1.00
2023-04-13T15:12:12.738Z,1.00
2023-04-13T15:14:40.597Z,1.00
2023-04-13T15:17:09.642Z,1.00
2023-04-13T15:19:36.225Z,1.00
2023-04-13T15:22:02.836Z,1.00
2023-04-13T15:24:29.436Z,1.00
2023-04-13T15:26:56.032Z,1.00
2023-04-13T15:29:23.644Z,1.00
2023-04-13T15:31:51.867Z,1.00
2023-04-13T15:34:18.466Z,1.00
2023-04-13T15:36:45.057Z,1.00
2023-04-13T15:39:11.621Z,1.00
2023-04-13T15:41:38.157Z,1.00
2023-04-13T15:44:05.198Z,1.00
2023-04-13T15:46:32.280Z,1.00
2023-04-13T15:48:59.658Z,1.00
2023-04-13T15:51:27.704Z,1.00
2023-04-13T15:53:54.249Z,1.00
2023-04-13T15:56:21.249Z,1.00
2023-04-13T15:58:48.641Z,1.00
2023-04-13T16:01:15.302Z,1.00
2023-04-13T16:03:42.133Z,1.00
2023-04-13T16:06:09.702Z,1.00
2023-04-13T16:08:36.402Z,1.00
2023-04-13T16:11:03.294Z,1.00
2023-04-13T16:13:47.387Z,1.00
2023-04-13T16:16:15.782Z,1.00
2023-04-13T16:18:42.353Z,1.00
2023-04-13T16:21:10.883Z,1.00
2023-04-13T16:23:38.236Z,1.00
2023-04-13T16:26:05.171Z,1.00
2023-04-13T16:28:31.821Z,13.10
2023-04-13T16:30:59.000Z,1.00
2023-04-13T16:33:25.671Z,1.00
2023-04-13T16:35:52.571Z,1.00
2023-04-13T16:38:19.158Z,1.00
2023-04-13T16:40:45.837Z,1.00
2023-04-13T16:43:12.591Z,1.00
2023-04-13T16:45:39.145Z,1.00
2023-04-13T16:48:06.315Z,1.00
2023-04-13T16:50:32.906Z,1.00
2023-04-13T16:52:59.611Z,1.00
2023-04-13T16:55:28.741Z,1.00
2023-04-13T16:57:55.705Z,1.00
2023-04-13T17:00:22.583Z,1.00
2023-04-13T17:02:49.399Z,1.00
2023-04-13T17:05:16.224Z,1.00
2023-04-13T17:07:43.784Z,1.00
2023-04-13T17:10:12.497Z,1.00
2023-04-13T17:12:39.301Z,1.00
2023-04-13T17:15:06.338Z,1.00
2023-04-13T17:17:33.969Z,1.00
2023-04-13T17:20:00.558Z,1.00
2023-04-13T17:22:27.291Z,1.00
2023-04-13T17:24:54.234Z,1.00
2023-04-13T17:27:20.820Z,1.00
2023-04-13T17:29:50.067Z,1.00
2023-04-13T17:32:16.933Z,1.00
2023-04-13T17:34:44.729Z,1.00
2023-04-13T17:37:12.221Z,2.90
2023-04-13T17:39:42.197Z,4.20
2023-04-13T17:44:37.061Z,1.00
2023-04-13T17:47:03.633Z,3.80
2023-04-13T17:49:30.214Z,6.70
2023-04-13T17:56:52.620Z,19.90
2023-04-13T17:59:19.215Z,24.20
2023-04-13T18:01:45.905Z,24.50
2023-04-13T18:04:13.499Z,28.90
2023-04-13T18:06:40.787Z,35.60
2023-04-13T18:09:09.801Z,30.40
2023-04-13T18:11:36.365Z,31.20
2023-04-13T18:36:15.383Z,43.90
2023-04-13T18:46:03.229Z,49.90
2023-04-13T18:48:30.741Z,49.90
2023-04-13T18:50:57.360Z,54.10
2023-04-13T18:53:23.914Z,60.20
2023-04-13T19:00:46.398Z,56.50
2023-04-13T19:03:13.954Z,57.20
2023-04-13T19:05:40.755Z,55.30
2023-04-13T19:08:09.847Z,56.40
2023-04-13T19:10:36.472Z,56.40
2023-04-13T19:13:03.268Z,60.30
2023-04-13T19:15:30.748Z,59.90
2023-04-13T19:17:57.500Z,61.50
2023-04-13T19:20:24.851Z,62.20
2023-04-13T19:22:51.435Z,61.20
2023-04-13T19:25:18.020Z,63.00
2023-04-13T19:27:45.607Z,64.40
2023-04-13T19:30:14.868Z,65.50
2023-04-13T19:32:42.884Z,63.60
2023-04-13T19:35:10.574Z,64.00
2023-04-13T19:37:38.067Z,63.00
2023-04-13T19:40:09.545Z,63.90
2023-04-13T19:42:36.416Z,67.20
2023-04-13T19:45:03.586Z,73.20
2023-04-13T19:47:30.378Z,77.30
2023-04-13T19:49:57.233Z,79.30
2023-04-13T19:52:24.980Z,78.00
2023-04-13T19:54:51.898Z,78.40
2023-04-13T19:57:18.703Z,79.40
2023-04-13T19:59:45.293Z,78.60
2023-04-13T20:02:12.231Z,79.00
2023-04-13T20:04:40.128Z,78.40
2023-04-13T20:07:07.111Z,78.70
2023-04-13T20:09:33.741Z,81.40
2023-04-13T20:12:00.735Z,82.70
2023-04-13T20:14:27.354Z,83.90
2023-04-13T20:16:53.997Z,85.50
2023-04-13T20:19:21.137Z,86.20
2023-04-13T20:21:47.855Z,85.50
2023-04-13T20:24:14.532Z,83.90
2023-04-13T20:26:42.113Z,82.30
2023-04-13T20:29:08.761Z,82.10
2023-04-13T20:31:36.736Z,81.70
2023-04-13T20:34:03.916Z,81.70
2023-04-13T20:36:30.982Z,81.40
2023-04-13T20:39:00.526Z,81.50
2023-04-13T20:41:29.809Z,81.90
2023-04-13T20:43:56.941Z,84.60
2023-04-13T20:46:27.003Z,81.70
2023-04-13T20:48:53.651Z,80.70
2023-04-13T20:51:22.753Z,78.80
2023-04-13T20:53:50.049Z,77.50
2023-04-13T20:56:19.420Z,77.20
2023-04-13T20:58:47.715Z,74.50
2023-04-13T21:01:15.367Z,74.10
2023-04-13T21:03:42.214Z,74.40
2023-04-13T21:06:08.930Z,74.10
2023-04-13T21:08:35.633Z,73.90
2023-04-13T21:11:02.233Z,75.20
2023-04-13T21:13:30.474Z,74.30
2023-04-13T21:15:57.109Z,75.60
2023-04-13T21:18:23.724Z,72.50
2023-04-13T21:20:50.388Z,72.80
2023-04-13T21:23:17.244Z,74.50
2023-04-13T21:25:44.587Z,73.30
2023-04-13T21:28:11.390Z,73.50
2023-04-13T21:30:37.940Z,73.60
2023-04-13T21:33:04.547Z,75.00
2023-04-13T21:35:31.097Z,74.10
2023-04-13T21:37:57.771Z,74.20
2023-04-13T21:40:24.864Z,74.30
2023-04-13T21:42:51.440Z,76.40
2023-04-13T21:45:18.220Z,77.10
2023-04-13T21:47:47.047Z,77.80
2023-04-13T21:50:13.669Z,78.70
2023-04-13T21:52:40.490Z,80.20
2023-04-13T21:55:07.164Z,80.90
2023-04-13T21:57:33.708Z,81.90
2023-04-13T22:00:00.260Z,83.00
2023-04-13T22:02:27.042Z,83.90
2023-04-13T22:04:54.079Z,84.50
2023-04-13T22:07:31.496Z,85.00
2023-04-13T22:10:06.798Z,85.80
2023-04-13T22:12:33.395Z,87.80
2023-04-13T22:14:59.952Z,87.20
2023-04-13T22:17:26.560Z,85.00
2023-04-13T22:19:53.227Z,79.20
2023-04-13T22:22:19.996Z,79.10
2023-04-13T22:24:46.995Z,78.20
2023-04-13T22:27:13.617Z,76.80
2023-04-13T22:29:40.284Z,76.90
2023-04-13T22:32:06.827Z,76.30
2023-04-13T22:34:34.640Z,75.00
2023-04-13T22:37:01.467Z,74.30
2023-04-13T22:39:31.016Z,74.40
2023-04-13T22:41:58.681Z,75.40
2023-04-13T22:44:25.270Z,74.20
2023-04-13T22:46:53.569Z,72.90
2023-04-13T22:49:20.200Z,72.60
2023-04-13T22:51:46.801Z,73.00
2023-04-13T22:54:13.419Z,70.70
2023-04-13T22:56:39.976Z,70.00
2023-04-13T22:59:06.502Z,71.00
2023-04-13T23:01:33.081Z,72.50
2023-04-13T23:03:59.970Z,73.60
2023-04-13T23:06:27.577Z,73.60
2023-04-13T23:08:58.298Z,74.20
2023-04-13T23:11:25.154Z,73.70
2023-04-13T23:13:55.069Z,73.60
2023-04-13T23:16:21.808Z,72.80
2023-04-13T23:18:48.500Z,73.50
2023-04-13T23:21:15.074Z,72.70
2023-04-13T23:23:41.828Z,73.60
2023-04-13T23:26:08.704Z,73.30
2023-04-13T23:28:35.279Z,72.40
2023-04-13T23:31:02.464Z,73.70
2023-04-13T23:33:30.053Z,75.00
2023-04-13T23:35:56.600Z,76.20
2023-04-13T23:38:23.256Z,76.20
2023-04-13T23:40:49.792Z,76.20
2023-04-13T23:43:16.422Z,76.20
2023-04-13T23:45:42.960Z,76.30
2023-04-13T23:48:09.548Z,76.40
2023-04-13T23:50:36.108Z,76.20
2023-04-13T23:53:03.637Z,76.30
2023-04-13T23:55:30.196Z,78.00
2023-04-13T23:57:57.067Z,78.40
